createdAt,value
2019-02-02T00:00:44.832Z,46.07
2019-02-02T00:06:53.033Z,47.40
2019-02-02T00:09:24.755Z,42.73
2019-02-02T00:11:56.724Z,41.17
2019-02-02T00:14:28.580Z,43.53
2019-02-02T00:17:00.431Z,48.23
2019-02-02T00:19:32.330Z,46.60
2019-02-02T00:22:05.229Z,45.70
2019-02-02T00:24:37.342Z,49.83
2019-02-02T00:27:09.197Z,46.93
2019-02-02T00:29:40.889Z,49.23
2019-02-02T00:32:13.541Z,67.20
2019-02-02T00:34:45.524Z,57.37
2019-02-02T00:37:17.425Z,55.93
2019-02-02T00:39:49.087Z,58.13
2019-02-02T00:42:22.279Z,68.50
2019-02-02T00:44:54.226Z,64.73
2019-02-02T00:47:26.218Z,58.70
2019-02-02T00:49:58.518Z,61.07
2019-02-02T00:52:31.065Z,57.50
2019-02-02T00:55:03.970Z,58.67
2019-02-02T00:57:36.298Z,62.10
2019-02-02T01:00:11.129Z,58.63
2019-02-02T01:02:42.990Z,57.90
2019-02-02T01:05:17.681Z,61.20
2019-02-02T01:07:50.275Z,60.47
2019-02-02T01:10:27.660Z,59.73
2019-02-02T01:13:00.041Z,59.07
2019-02-02T01:15:32.001Z,60.37
2019-02-02T01:18:03.775Z,60.07
2019-02-02T01:20:35.507Z,97.57
2019-02-02T01:23:07.819Z,159.30
2019-02-02T01:25:39.545Z,189.70
2019-02-02T01:28:11.334Z,214.30
2019-02-02T01:30:46.107Z,85.13
2019-02-02T01:33:18.149Z,30.40
2019-02-02T01:35:50.147Z,17.90
2019-02-02T01:38:21.840Z,14.37
2019-02-02T01:40:57.043Z,9.50
2019-02-02T01:43:28.894Z,8.97
2019-02-02T01:46:00.587Z,6.70
2019-02-02T01:48:34.049Z,7.17
2019-02-02T01:51:06.686Z,9.13
2019-02-02T01:53:38.733Z,8.50
2019-02-02T01:56:10.373Z,7.53
2019-02-02T01:58:42.196Z,8.40
2019-02-02T02:01:14.542Z,7.20
2019-02-02T02:03:48.384Z,6.33
2019-02-02T02:06:20.261Z,6.60
2019-02-02T02:08:52.140Z,6.73
2019-02-02T02:11:25.776Z,7.87
2019-02-02T02:13:57.650Z,6.67
2019-02-02T02:16:29.892Z,7.20
2019-02-02T02:19:01.588Z,6.03
2019-02-02T02:21:36.100Z,7.03
2019-02-02T02:24:08.370Z,7.00
2019-02-02T02:26:40.201Z,6.87
2019-02-02T02:29:14.519Z,7.07
2019-02-02T02:31:47.264Z,8.63
2019-02-02T02:34:19.042Z,7.13
2019-02-02T02:36:50.843Z,6.37
2019-02-02T02:39:22.686Z,8.70
2019-02-02T02:41:58.206Z,7.13
2019-02-02T02:44:54.845Z,7.40
2019-02-02T02:47:43.087Z,8.17
2019-02-02T02:50:17.234Z,8.40
2019-02-02T02:52:49.173Z,7.40
2019-02-02T02:55:20.881Z,7.63
2019-02-02T02:57:53.129Z,7.53
2019-02-02T03:00:30.469Z,8.27
2019-02-02T03:03:02.807Z,7.93
2019-02-02T03:05:34.873Z,8.33
2019-02-02T03:08:06.888Z,8.77
2019-02-02T03:10:39.155Z,10.00
2019-02-02T03:13:30.945Z,9.40
2019-02-02T03:16:03.632Z,7.37
2019-02-02T03:18:35.652Z,7.90
2019-02-02T03:21:09.016Z,7.40
2019-02-02T03:23:40.940Z,8.57
2019-02-02T03:26:12.628Z,9.10
2019-02-02T03:28:53.257Z,8.47
2019-02-02T03:31:17.560Z,8.27
2019-02-02T03:33:49.533Z,8.10
2019-02-02T03:36:21.773Z,8.10
2019-02-02T03:38:53.472Z,9.17
2019-02-02T03:41:25.233Z,8.30
2019-02-02T03:43:57.244Z,8.80
2019-02-02T03:46:29.623Z,7.77
2019-02-02T03:49:01.328Z,7.83
2019-02-02T03:51:33.744Z,7.07
2019-02-02T03:54:08.936Z,8.23
2019-02-02T03:56:39.944Z,7.57
2019-02-02T03:59:11.647Z,7.23
2019-02-02T04:01:43.381Z,7.20
2019-02-02T04:04:15.309Z,8.37
2019-02-02T04:06:47.481Z,8.40
2019-02-02T04:09:19.171Z,8.50
2019-02-02T04:11:50.863Z,9.63
2019-02-02T04:14:22.548Z,9.10
2019-02-02T04:16:54.300Z,9.50
2019-02-02T04:19:26.132Z,8.90
2019-02-02T04:21:58.124Z,8.10
2019-02-02T04:24:29.803Z,15.20
2019-02-02T04:27:01.830Z,34.87
2019-02-02T04:29:33.813Z,129.53
2019-02-02T04:32:05.525Z,123.83
2019-02-02T04:34:37.225Z,86.87
2019-02-02T04:37:09.768Z,55.63
2019-02-02T04:39:41.914Z,23.70
2019-02-02T04:42:13.949Z,18.73
2019-02-02T04:44:45.612Z,13.97
2019-02-02T04:47:17.353Z,12.70
2019-02-02T04:49:49.212Z,11.27
2019-02-02T04:52:21.229Z,11.13
2019-02-02T04:54:54.324Z,10.60
2019-02-02T04:57:28.049Z,10.53
2019-02-02T05:00:01.823Z,11.07
2019-02-02T05:02:35.006Z,10.00
2019-02-02T05:05:11.247Z,10.23
2019-02-02T05:08:03.613Z,10.27
2019-02-02T05:10:41.740Z,11.80
2019-02-02T05:13:22.128Z,11.30
2019-02-02T05:15:56.609Z,11.20
2019-02-02T05:18:32.561Z,10.70
2019-02-02T05:21:08.449Z,10.03
2019-02-02T05:23:41.028Z,8.80
2019-02-02T05:26:19.580Z,9.40
2019-02-02T05:28:57.003Z,9.07
2019-02-02T05:31:36.407Z,9.90
2019-02-02T05:34:08.835Z,10.63
2019-02-02T05:36:46.184Z,10.13
2019-02-02T05:39:18.692Z,11.10
2019-02-02T05:41:51.208Z,12.27
2019-02-02T05:44:23.072Z,12.47
2019-02-02T05:46:57.273Z,14.30
2019-02-02T05:49:28.984Z,13.63
2019-02-02T05:52:00.764Z,12.63
2019-02-02T05:54:32.384Z,12.10
2019-02-02T05:57:05.681Z,12.80
2019-02-02T05:59:37.568Z,20.13
2019-02-02T06:02:09.648Z,11.93
2019-02-02T06:04:41.388Z,17.33
2019-02-02T06:07:13.276Z,11.73
2019-02-02T06:09:44.954Z,11.90
2019-02-02T06:12:16.731Z,11.70
2019-02-02T06:14:48.445Z,10.80
2019-02-02T06:17:20.153Z,13.10
2019-02-02T06:19:51.815Z,12.63
2019-02-02T06:22:23.832Z,12.13
2019-02-02T06:24:55.705Z,13.93
2019-02-02T06:27:28.242Z,14.80
2019-02-02T06:30:04.451Z,19.27
2019-02-02T06:32:33.308Z,21.43
2019-02-02T06:35:05.331Z,16.20
2019-02-02T06:37:37.218Z,15.33
2019-02-02T06:40:11.622Z,18.40
2019-02-02T06:42:43.399Z,16.03
2019-02-02T06:45:17.776Z,16.03
2019-02-02T06:47:49.578Z,19.07
2019-02-02T06:50:21.260Z,36.30
2019-02-02T06:52:52.903Z,45.03
2019-02-02T06:55:24.573Z,58.07
2019-02-02T06:57:56.264Z,43.03
2019-02-02T07:00:57.973Z,29.20
2019-02-02T07:03:29.689Z,22.20
2019-02-02T07:06:01.242Z,18.67
2019-02-02T07:08:33.475Z,18.23
2019-02-02T07:11:05.141Z,17.67
2019-02-02T07:13:36.764Z,18.90
2019-02-02T07:16:08.455Z,18.40
2019-02-02T07:18:40.074Z,17.60
2019-02-02T07:21:11.853Z,17.90
2019-02-02T07:23:43.454Z,20.30
2019-02-02T07:26:15.084Z,18.67
2019-02-02T07:28:46.714Z,17.57
2019-02-02T07:31:18.376Z,17.57
2019-02-02T07:33:50.379Z,18.80
2019-02-02T07:36:22.003Z,16.87
2019-02-02T07:38:53.944Z,19.43
2019-02-02T07:41:25.943Z,19.97
2019-02-02T07:43:57.938Z,18.87
2019-02-02T07:46:29.564Z,20.93
2019-02-02T07:49:01.413Z,22.80
2019-02-02T07:51:33.104Z,21.57
2019-02-02T07:54:06.130Z,22.10
2019-02-02T07:56:37.803Z,26.30
2019-02-02T07:59:09.364Z,33.97
2019-02-02T08:01:41.054Z,25.17
2019-02-02T08:04:12.604Z,20.27
2019-02-02T08:06:46.207Z,21.17
2019-02-02T08:09:17.659Z,19.17
2019-02-02T08:11:49.363Z,19.30
2019-02-02T08:14:20.941Z,19.90
2019-02-02T08:16:52.814Z,19.80
2019-02-02T08:19:25.773Z,18.50
2019-02-02T08:21:57.562Z,19.17
2019-02-02T08:24:29.336Z,17.80
2019-02-02T08:27:01.262Z,18.97
2019-02-02T08:29:33.075Z,18.47
2019-02-02T08:32:05.064Z,18.80
2019-02-02T08:34:36.636Z,18.77
2019-02-02T08:37:08.452Z,18.73
2019-02-02T08:39:41.703Z,18.60
2019-02-02T08:42:13.357Z,20.60
2019-02-02T08:44:44.976Z,20.97
2019-02-02T08:47:16.645Z,19.07
2019-02-02T08:49:48.407Z,21.03
2019-02-02T08:52:20.309Z,29.73
2019-02-02T08:54:52.001Z,19.63
2019-02-02T08:57:23.841Z,19.73
2019-02-02T08:59:55.440Z,19.93
2019-02-02T09:02:27.130Z,20.73
2019-02-02T09:04:58.799Z,19.43
2019-02-02T09:07:30.431Z,20.00
2019-02-02T09:10:02.107Z,18.33
2019-02-02T09:12:33.747Z,20.93
2019-02-02T09:15:08.124Z,21.30
2019-02-02T09:17:41.160Z,20.27
2019-02-02T09:20:14.718Z,18.70
2019-02-02T09:22:46.842Z,18.40
2019-02-02T09:25:19.987Z,17.43
2019-02-02T09:27:51.656Z,17.20
2019-02-02T09:30:25.627Z,17.67
2019-02-02T09:32:57.269Z,16.77
2019-02-02T09:35:29.140Z,16.73
2019-02-02T09:38:01.245Z,16.23
2019-02-02T09:40:33.108Z,17.20
2019-02-02T09:43:04.770Z,16.27
2019-02-02T09:45:36.403Z,16.27
2019-02-02T09:48:08.083Z,15.03
2019-02-02T09:50:39.816Z,14.33
2019-02-02T09:53:11.679Z,15.10
2019-02-02T09:55:43.568Z,15.50
2019-02-02T09:58:15.135Z,15.10
2019-02-02T10:00:46.804Z,14.97
2019-02-02T10:03:18.907Z,15.93
2019-02-02T10:05:50.643Z,14.87
2019-02-02T10:08:22.275Z,15.00
2019-02-02T10:10:53.934Z,14.80
2019-02-02T10:13:25.601Z,15.50
2019-02-02T10:15:57.286Z,15.07
2019-02-02T10:18:28.899Z,15.43
2019-02-02T10:21:04.050Z,14.27
2019-02-02T10:23:33.511Z,15.03
2019-02-02T10:26:05.161Z,16.33
2019-02-02T10:28:37.109Z,15.93
2019-02-02T10:31:08.763Z,15.70
2019-02-02T10:33:40.421Z,15.43
2019-02-02T10:36:12.068Z,15.80
2019-02-02T10:38:43.742Z,16.10
2019-02-02T10:41:15.665Z,15.27
2019-02-02T10:43:47.356Z,14.53
2019-02-02T10:46:19.008Z,14.23
2019-02-02T10:48:50.873Z,15.03
2019-02-02T10:51:25.430Z,14.53
2019-02-02T10:53:55.755Z,14.57
2019-02-02T10:56:27.564Z,15.93
2019-02-02T10:59:02.266Z,15.70
2019-02-02T11:01:35.587Z,18.50
2019-02-02T11:04:07.439Z,17.87
2019-02-02T11:06:39.071Z,17.73
2019-02-02T11:09:11.675Z,18.80
2019-02-02T11:11:43.332Z,17.83
2019-02-02T11:14:15.148Z,17.73
2019-02-02T11:16:46.954Z,17.90
2019-02-02T11:19:18.844Z,18.90
2019-02-02T11:21:51.197Z,17.57
2019-02-02T11:24:23.170Z,19.60
2019-02-02T11:26:55.006Z,19.70
2019-02-02T11:29:26.974Z,19.93
2019-02-02T11:32:03.050Z,20.13
2019-02-02T11:34:32.313Z,19.67
2019-02-02T11:37:03.880Z,19.93
2019-02-02T11:39:35.766Z,19.17
2019-02-02T11:42:07.626Z,18.33
2019-02-02T11:44:39.308Z,17.43
2019-02-02T11:47:11.045Z,17.80
2019-02-02T11:49:43.050Z,20.43
2019-02-02T11:52:14.787Z,18.47
2019-02-02T11:54:46.502Z,17.80
2019-02-02T11:57:18.328Z,18.97
2019-02-02T11:59:50.062Z,18.33
2019-02-02T12:02:21.707Z,19.23
2019-02-02T12:04:54.458Z,24.27
2019-02-02T12:07:26.282Z,20.90
2019-02-02T12:09:58.244Z,20.50
2019-02-02T12:12:29.879Z,18.90
2019-02-02T12:15:01.517Z,18.47
2019-02-02T12:17:33.233Z,17.10
2019-02-02T12:20:06.473Z,17.90
2019-02-02T12:22:38.696Z,18.30
2019-02-02T12:25:11.009Z,17.77
2019-02-02T12:27:42.771Z,18.77
2019-02-02T12:30:20.424Z,18.40
2019-02-02T12:32:52.067Z,20.43
2019-02-02T12:35:25.922Z,20.07
2019-02-02T12:37:57.719Z,19.50
2019-02-02T12:40:30.017Z,19.03
2019-02-02T12:43:01.724Z,20.23
2019-02-02T12:45:42.010Z,18.00
2019-02-02T12:48:13.692Z,19.40
2019-02-02T12:50:45.304Z,20.53
2019-02-02T12:53:16.886Z,20.20
2019-02-02T12:55:49.195Z,19.80
2019-02-02T12:58:21.154Z,19.93
2019-02-02T13:00:52.884Z,19.70
2019-02-02T13:03:24.529Z,17.63
2019-02-02T13:05:56.155Z,18.43
2019-02-02T13:08:27.930Z,18.33
2019-02-02T13:10:59.574Z,18.40
2019-02-02T13:13:31.618Z,17.90
2019-02-02T13:16:03.322Z,16.63
2019-02-02T13:18:35.032Z,15.57
2019-02-02T13:21:06.751Z,16.97
2019-02-02T13:23:38.521Z,17.50
2019-02-02T13:26:10.081Z,16.07
2019-02-02T13:28:41.702Z,14.33
2019-02-02T13:31:13.535Z,16.80
2019-02-02T13:33:45.657Z,21.83
2019-02-02T13:36:17.295Z,20.23
2019-02-02T13:38:49.010Z,17.43
2019-02-02T13:41:21.338Z,14.20
2019-02-02T13:43:52.922Z,15.47
2019-02-02T13:46:24.583Z,15.73
2019-02-02T13:48:56.261Z,15.17
2019-02-02T13:51:28.163Z,13.77
2019-02-02T13:54:00.367Z,13.27
2019-02-02T13:56:32.102Z,11.90
2019-02-02T13:59:04.284Z,12.13
2019-02-02T14:01:42.028Z,9.93
2019-02-02T14:04:09.379Z,11.30
2019-02-02T14:06:41.404Z,8.67
2019-02-02T14:09:13.036Z,7.83
2019-02-02T14:11:44.970Z,8.17
2019-02-02T14:14:16.588Z,7.40
2019-02-02T14:16:48.326Z,8.40
2019-02-02T14:19:19.977Z,7.43
2019-02-02T14:25:29.249Z,8.47
2019-02-02T14:28:01.447Z,9.27
2019-02-02T14:30:33.285Z,10.67
2019-02-02T14:33:13.800Z,8.70
2019-02-02T14:35:38.164Z,8.90
2019-02-02T14:38:10.179Z,8.37
2019-02-02T14:40:42.347Z,8.03
2019-02-02T14:43:14.270Z,8.37
2019-02-02T14:45:46.028Z,9.00
2019-02-02T14:48:17.987Z,8.73
2019-02-02T14:50:50.092Z,8.53
2019-02-02T14:53:21.695Z,8.03
2019-02-02T14:55:53.579Z,8.50
2019-02-02T14:58:25.793Z,8.73
2019-02-02T15:00:57.815Z,7.73
2019-02-02T15:07:06.802Z,8.37
2019-02-02T15:09:38.815Z,8.23
2019-02-02T15:12:11.637Z,8.00
2019-02-02T15:14:43.728Z,7.13
2019-02-02T15:17:15.795Z,6.23
2019-02-02T15:19:48.098Z,6.17
2019-02-02T15:22:20.670Z,6.80
2019-02-02T15:24:53.302Z,7.00
2019-02-02T15:27:25.980Z,6.03
2019-02-02T15:29:57.817Z,5.93
2019-02-02T15:32:29.984Z,5.97
2019-02-02T15:35:01.904Z,7.50
2019-02-02T15:37:33.542Z,6.77
2019-02-02T15:40:07.625Z,6.60
2019-02-02T15:42:39.466Z,6.50
2019-02-02T15:45:22.398Z,7.13
2019-02-02T15:47:54.680Z,7.47
2019-02-02T15:50:26.315Z,7.93
2019-02-02T15:52:58.080Z,6.57
2019-02-02T15:55:30.587Z,7.17
2019-02-02T15:58:02.667Z,6.83
2019-02-02T16:00:39.004Z,4.50
2019-02-02T16:03:13.663Z,5.80
2019-02-02T16:05:45.493Z,5.53
2019-02-02T16:08:17.254Z,5.97
2019-02-02T16:10:48.871Z,3.90
2019-02-02T16:13:20.500Z,4.73
2019-02-02T16:15:52.550Z,5.23
2019-02-02T16:18:24.188Z,3.33
2019-02-02T16:20:56.051Z,3.27
2019-02-02T16:23:27.673Z,2.80
2019-02-02T16:25:59.834Z,3.20
2019-02-02T16:28:31.465Z,2.97
2019-02-02T16:31:03.096Z,3.50
2019-02-02T16:33:34.818Z,2.83
2019-02-02T16:36:07.127Z,3.07
2019-02-02T16:38:38.748Z,3.20
2019-02-02T16:41:10.412Z,3.45
2019-02-02T16:43:42.611Z,3.08
2019-02-02T16:46:14.662Z,4.37
2019-02-02T16:48:46.271Z,4.05
2019-02-02T16:51:18.583Z,3.35
2019-02-02T16:53:50.412Z,4.00
2019-02-02T16:56:22.042Z,2.83
2019-02-02T16:58:53.804Z,2.83
2019-02-02T17:01:26.085Z,4.05
2019-02-02T17:03:57.745Z,3.42
2019-02-02T17:06:29.468Z,3.10
2019-02-02T17:09:01.051Z,7.10
2019-02-02T17:11:34.335Z,4.47
2019-02-02T17:14:06.836Z,3.80
2019-02-02T17:16:38.872Z,2.77
2019-02-02T17:19:10.714Z,3.60
2019-02-02T17:21:42.530Z,3.75
2019-02-02T17:24:14.353Z,4.08
2019-02-02T17:26:49.684Z,4.05
2019-02-02T17:29:23.036Z,3.92
2019-02-02T17:31:54.645Z,3.62
2019-02-02T17:34:27.573Z,3.47
2019-02-02T17:37:00.006Z,3.42
2019-02-02T17:39:32.912Z,3.93
2019-02-02T17:42:06.809Z,4.70
2019-02-02T17:44:39.153Z,4.60
2019-02-02T17:47:11.244Z,6.40
2019-02-02T17:49:43.471Z,4.40
2019-02-02T17:52:21.491Z,3.17
2019-02-02T17:54:55.593Z,30.75
2019-02-02T17:57:27.400Z,15.83
2019-02-02T17:59:59.613Z,20.50
2019-02-02T18:02:32.546Z,3.50
2019-02-02T18:05:04.209Z,3.15
2019-02-02T18:07:36.278Z,3.08
2019-02-02T18:10:16.530Z,3.08
2019-02-02T18:12:48.247Z,4.42
2019-02-02T18:15:19.891Z,1.77
2019-02-02T18:17:51.509Z,3.20
2019-02-02T18:20:23.547Z,11.38
2019-02-02T18:22:55.522Z,12.90
2019-02-02T18:25:27.399Z,48.78
2019-02-02T18:27:59.059Z,3.30
2019-02-02T18:30:30.909Z,9.08
2019-02-02T18:33:02.572Z,8.35
2019-02-02T18:35:34.984Z,16.80
2019-02-02T18:38:07.110Z,12.28
2019-02-02T18:40:40.141Z,52.17
2019-02-02T18:43:12.750Z,16.77
2019-02-02T18:45:44.594Z,94.55
2019-02-02T18:48:16.728Z,32.98
2019-02-02T18:50:48.462Z,8.83
2019-02-02T18:53:20.209Z,8.90
2019-02-02T18:55:54.879Z,16.77
2019-02-02T18:58:26.763Z,6.50
2019-02-02T19:00:58.923Z,15.23
2019-02-02T19:03:30.541Z,3.92
2019-02-02T19:06:02.415Z,4.45
2019-02-02T19:08:34.464Z,4.70
2019-02-02T19:11:07.058Z,3.77
2019-02-02T19:13:38.833Z,2.37
2019-02-02T19:16:10.782Z,12.85
2019-02-02T19:18:42.482Z,7.87
2019-02-02T19:21:14.195Z,2.80
2019-02-02T19:23:45.888Z,3.00
2019-02-02T19:26:17.520Z,2.33
2019-02-02T19:28:49.183Z,9.55
2019-02-02T19:31:23.206Z,2.92
2019-02-02T19:33:55.057Z,3.62
2019-02-02T19:36:27.261Z,6.75
2019-02-02T19:38:58.996Z,7.55
2019-02-02T19:41:34.713Z,3.02
2019-02-02T19:44:07.347Z,1.82
2019-02-02T19:46:39.162Z,3.08
2019-02-02T19:49:10.908Z,3.77
2019-02-02T19:51:42.749Z,4.60
2019-02-02T19:54:14.776Z,3.45
2019-02-02T19:56:46.723Z,2.08
2019-02-02T19:59:18.472Z,7.92
2019-02-02T20:01:50.212Z,4.12
2019-02-02T20:04:22.555Z,4.40
2019-02-02T20:06:55.555Z,3.87
2019-02-02T20:09:28.594Z,3.33
2019-02-02T20:12:00.551Z,3.90
2019-02-02T20:14:32.717Z,3.70
2019-02-02T20:17:04.391Z,3.27
2019-02-02T20:19:36.779Z,4.17
2019-02-02T20:22:08.639Z,4.17
2019-02-02T20:24:40.574Z,3.20
2019-02-02T20:27:12.199Z,2.90
2019-02-02T20:29:44.166Z,2.70
2019-02-02T20:32:15.832Z,3.60
2019-02-02T20:34:48.853Z,3.30
2019-02-02T20:37:21.135Z,4.10
2019-02-02T20:39:52.938Z,3.92
2019-02-02T20:42:25.512Z,3.52
2019-02-02T20:45:00.321Z,2.85
2019-02-02T20:47:32.166Z,4.15
2019-02-02T20:50:04.072Z,3.00
2019-02-02T20:52:46.924Z,2.70
2019-02-02T20:55:15.223Z,4.28
2019-02-02T20:57:47.804Z,7.67
2019-02-02T21:00:24.866Z,3.70
2019-02-02T21:02:57.163Z,4.25
2019-02-02T21:05:31.619Z,2.67
2019-02-02T21:08:02.014Z,3.10
2019-02-02T21:10:33.746Z,3.25
2019-02-02T21:13:06.320Z,3.60
2019-02-02T21:15:38.005Z,3.92
2019-02-02T21:18:11.802Z,3.47
2019-02-02T21:20:42.921Z,4.08
2019-02-02T21:23:14.995Z,3.40
2019-02-02T21:25:47.302Z,3.08
2019-02-02T21:28:18.950Z,5.22
2019-02-02T21:30:51.828Z,2.90
2019-02-02T21:33:23.943Z,3.08
2019-02-02T21:36:03.645Z,3.85
2019-02-02T21:38:29.601Z,3.35
2019-02-02T21:41:01.602Z,2.67
2019-02-02T21:43:33.681Z,3.45
2019-02-02T21:46:05.545Z,3.25
2019-02-02T21:48:37.462Z,3.15
2019-02-02T21:51:09.456Z,3.02
2019-02-02T21:53:41.571Z,5.22
2019-02-02T21:56:13.206Z,3.65
2019-02-02T21:58:44.882Z,3.70
2019-02-02T22:01:23.779Z,2.52
2019-02-02T22:03:50.380Z,2.17
2019-02-02T22:06:22.069Z,2.45
2019-02-02T22:08:56.504Z,3.02
2019-02-02T22:11:28.142Z,3.12
2019-02-02T22:14:00.037Z,2.25
2019-02-02T22:16:31.909Z,1.90
2019-02-02T22:19:03.702Z,2.50
2019-02-02T22:21:35.852Z,3.00
2019-02-02T22:24:08.033Z,4.15
2019-02-02T22:26:40.236Z,2.58
2019-02-02T22:29:12.399Z,2.17
2019-02-02T22:31:44.355Z,2.10
2019-02-02T22:34:16.003Z,2.90
2019-02-02T22:36:47.794Z,2.30
2019-02-02T22:39:19.734Z,2.87
2019-02-02T22:41:51.655Z,2.80
2019-02-02T22:44:23.346Z,2.87
2019-02-02T22:46:56.040Z,2.90
2019-02-02T22:49:28.102Z,2.50
2019-02-02T22:51:59.997Z,3.03
2019-02-02T22:54:32.140Z,2.90
2019-02-02T22:57:04.330Z,2.53
2019-02-02T22:59:36.887Z,8.27
2019-02-02T23:02:09.533Z,3.57
2019-02-02T23:04:43.716Z,2.57
2019-02-02T23:07:18.188Z,2.40
2019-02-02T23:10:24.029Z,2.60
2019-02-02T23:13:05.241Z,2.47
2019-02-02T23:15:45.288Z,2.30
2019-02-02T23:18:16.997Z,2.67
2019-02-02T23:20:49.475Z,2.83
2019-02-02T23:23:21.115Z,2.07
2019-02-02T23:25:52.790Z,2.70
2019-02-02T23:28:24.662Z,2.77
2019-02-02T23:30:56.539Z,3.20
2019-02-02T23:33:28.233Z,2.97
2019-02-02T23:36:00.951Z,3.50
2019-02-02T23:38:32.611Z,2.80
2019-02-02T23:41:04.229Z,2.30
2019-02-02T23:43:36.037Z,2.23
2019-02-02T23:46:07.672Z,2.50
2019-02-02T23:48:41.231Z,3.30
2019-02-02T23:51:14.352Z,2.90
2019-02-02T23:53:45.985Z,2.53
2019-02-02T23:56:17.891Z,3.30
2019-02-02T23:58:49.780Z,2.83
